createdAt,value
2019-02-25T00:17:09.223Z,60.90
2019-02-25T00:47:15.842Z,64.50
2019-02-25T01:17:20.669Z,70.30
2019-02-25T01:47:25.900Z,67.10
2019-02-25T02:17:30.745Z,68.40
2019-02-25T02:47:39.007Z,71.60
2019-02-25T03:17:43.940Z,75.20
2019-02-25T03:47:49.024Z,79.70
2019-02-25T04:17:53.941Z,83.60
2019-02-25T04:47:58.961Z,86.20
2019-02-25T05:18:03.860Z,90.90
2019-02-25T05:48:08.714Z,97.40
2019-02-25T06:18:13.572Z,99.90
2019-02-25T06:48:18.482Z,99.90
2019-02-25T07:18:33.918Z,99.90
2019-02-25T07:48:49.471Z,99.90
2019-02-25T08:19:12.177Z,99.70
2019-02-25T08:49:24.792Z,98.90
2019-02-25T09:19:29.539Z,98.60
2019-02-25T09:49:34.873Z,98.10
2019-02-25T10:19:39.883Z,97.20
2019-02-25T10:49:44.842Z,95.40
2019-02-25T11:19:49.696Z,94.80
2019-02-25T11:49:54.737Z,91.70
2019-02-25T12:19:59.574Z,85.90
2019-02-25T12:50:08.177Z,81.70
2019-02-25T13:20:16.342Z,69.00
2019-02-25T13:50:21.321Z,68.20
2019-02-25T14:20:26.744Z,67.60
2019-02-25T14:50:32.021Z,69.20
2019-02-25T15:20:36.934Z,70.20
2019-02-25T15:50:44.119Z,69.70
2019-02-25T16:20:48.603Z,69.10
2019-02-25T16:50:53.583Z,70.90
2019-02-25T17:20:58.492Z,71.30
2019-02-25T17:51:03.978Z,71.30
2019-02-25T18:21:10.473Z,72.30
2019-02-25T18:51:15.885Z,74.50
2019-02-25T19:21:20.717Z,78.20
2019-02-25T19:51:27.456Z,82.10
2019-02-25T20:21:32.441Z,86.80
2019-02-25T20:51:37.402Z,90.90
2019-02-25T21:21:42.334Z,92.10
2019-02-25T21:51:48.132Z,93.10
2019-02-25T22:21:55.583Z,93.60
2019-02-25T22:52:01.140Z,94.40
2019-02-25T23:22:06.700Z,95.40
2019-02-25T23:52:11.690Z,97.20
